sensor_id;sensor_type;location;lat;lon;timestamp;P1;durP1;ratioP1;P2;durP2;ratioP2
13455;SDS011;6800;50.940;6.940;2023-03-14T00:00:59;4.10;;;2.70;;
13455;SDS011;6800;50.940;6.940;2023-03-14T00:05:08;4.57;;;2.80;;
13455;SDS011;6800;50.940;6.940;2023-03-14T00:09:10;4.80;;;2.87;;
13455;SDS011;6800;50.940;6.940;2023-03-14T00:13:11;5.80;;;2.53;;
13455;SDS011;6800;50.940;6.940;2023-03-14T00:17:13;4.53;;;2.70;;
13455;SDS011;6800;50.940;6.940;2023-03-14T00:21:14;7.77;;;2.93;;
13455;SDS011;6800;50.940;6.940;2023-03-14T00:25:16;6.37;;;2.50;;
13455;SDS011;6800;50.940;6.940;2023-03-14T00:29:18;4.63;;;2.60;;
13455;SDS011;6800;50.940;6.940;2023-03-14T00:33:19;6.83;;;2.77;;
13455;SDS011;6800;50.940;6.940;2023-03-14T00:37:21;2.83;;;2.30;;
13455;SDS011;6800;50.940;6.940;2023-03-14T00:41:23;4.87;;;2.70;;
13455;SDS011;6800;50.940;6.940;2023-03-14T00:45:24;3.90;;;2.80;;
13455;SDS011;6800;50.940;6.940;2023-03-14T00:49:26;3.77;;;2.27;;
13455;SDS011;6800;50.940;6.940;2023-03-14T00:53:27;5.60;;;2.90;;
13455;SDS011;6800;50.940;6.940;2023-03-14T00:57:29;3.83;;;2.47;;
13455;SDS011;6800;50.940;6.940;2023-03-14T01:01:30;4.00;;;2.27;;
13455;SDS011;6800;50.940;6.940;2023-03-14T01:05:32;4.53;;;2.30;;
13455;SDS011;6800;50.940;6.940;2023-03-14T01:09:33;6.93;;;2.53;;
13455;SDS011;6800;50.940;6.940;2023-03-14T01:13:35;4.07;;;2.40;;
13455;SDS011;6800;50.940;6.940;2023-03-14T01:17:37;4.23;;;2.30;;
13455;SDS011;6800;50.940;6.940;2023-03-14T01:21:41;7.27;;;2.37;;
13455;SDS011;6800;50.940;6.940;2023-03-14T01:25:42;4.30;;;1.43;;
13455;SDS011;6800;50.940;6.940;2023-03-14T01:29:44;3.90;;;1.77;;
13455;SDS011;6800;50.940;6.940;2023-03-14T01:33:45;5.13;;;1.77;;
13455;SDS011;6800;50.940;6.940;2023-03-14T01:37:47;5.13;;;2.37;;
13455;SDS011;6800;50.940;6.940;2023-03-14T01:41:48;6.63;;;1.93;;
13455;SDS011;6800;50.940;6.940;2023-03-14T01:50:08;6.63;;;1.63;;
13455;SDS011;6800;50.940;6.940;2023-03-14T01:54:20;6.50;;;1.80;;
13455;SDS011;6800;50.940;6.940;2023-03-14T01:58:27;5.57;;;2.10;;
13455;SDS011;6800;50.940;6.940;2023-03-14T02:02:31;6.70;;;1.70;;
13455;SDS011;6800;50.940;6.940;2023-03-14T02:06:45;5.27;;;2.73;;
13455;SDS011;6800;50.940;6.940;2023-03-14T02:10:50;8.77;;;1.80;;
13455;SDS011;6800;50.940;6.940;2023-03-14T02:14:52;8.50;;;1.93;;
13455;SDS011;6800;50.940;6.940;2023-03-14T02:18:53;4.90;;;1.70;;
13455;SDS011;6800;50.940;6.940;2023-03-14T02:22:55;3.23;;;1.80;;
13455;SDS011;6800;50.940;6.940;2023-03-14T02:27:18;3.10;;;1.30;;
13455;SDS011;6800;50.940;6.940;2023-03-14T02:31:21;4.17;;;1.50;;
13455;SDS011;6800;50.940;6.940;2023-03-14T02:35:34;3.17;;;1.23;;
13455;SDS011;6800;50.940;6.940;2023-03-14T02:39:39;2.97;;;1.17;;
13455;SDS011;6800;50.940;6.940;2023-03-14T02:43:45;4.47;;;1.30;;
13455;SDS011;6800;50.940;6.940;2023-03-14T02:47:49;2.50;;;1.30;;
13455;SDS011;6800;50.940;6.940;2023-03-14T02:51:55;2.33;;;1.40;;
13455;SDS011;6800;50.940;6.940;2023-03-14T02:55:56;3.03;;;1.40;;
13455;SDS011;6800;50.940;6.940;2023-03-14T02:59:58;3.03;;;1.43;;
13455;SDS011;6800;50.940;6.940;2023-03-14T03:04:01;2.90;;;1.60;;
13455;SDS011;6800;50.940;6.940;2023-03-14T03:08:03;4.20;;;1.50;;
13455;SDS011;6800;50.940;6.940;2023-03-14T03:12:04;6.33;;;2.17;;
13455;SDS011;6800;50.940;6.940;2023-03-14T03:16:06;6.40;;;1.53;;
13455;SDS011;6800;50.940;6.940;2023-03-14T03:20:08;3.73;;;1.57;;
13455;SDS011;6800;50.940;6.940;2023-03-14T03:24:10;4.67;;;1.83;;
13455;SDS011;6800;50.940;6.940;2023-03-14T03:28:11;4.73;;;1.97;;
13455;SDS011;6800;50.940;6.940;2023-03-14T03:32:13;3.63;;;1.80;;
13455;SDS011;6800;50.940;6.940;2023-03-14T03:36:14;6.40;;;2.40;;
13455;SDS011;6800;50.940;6.940;2023-03-14T03:40:15;5.67;;;2.10;;
13455;SDS011;6800;50.940;6.940;2023-03-14T03:44:17;7.27;;;1.67;;
13455;SDS011;6800;50.940;6.940;2023-03-14T03:48:18;7.43;;;2.63;;
13455;SDS011;6800;50.940;6.940;2023-03-14T03:52:20;7.60;;;2.00;;
13455;SDS011;6800;50.940;6.940;2023-03-14T03:56:21;7.70;;;1.90;;
13455;SDS011;6800;50.940;6.940;2023-03-14T04:00:22;6.23;;;2.10;;
13455;SDS011;6800;50.940;6.940;2023-03-14T04:04:24;5.80;;;2.80;;
13455;SDS011;6800;50.940;6.940;2023-03-14T04:08:26;2.33;;;1.70;;
13455;SDS011;6800;50.940;6.940;2023-03-14T04:12:27;5.30;;;1.77;;
13455;SDS011;6800;50.940;6.940;2023-03-14T04:16:28;4.57;;;2.07;;
13455;SDS011;6800;50.940;6.940;2023-03-14T04:20:34;6.33;;;1.73;;
13455;SDS011;6800;50.940;6.940;2023-03-14T04:24:36;4.20;;;1.83;;
13455;SDS011;6800;50.940;6.940;2023-03-14T04:28:37;2.83;;;1.60;;
13455;SDS011;6800;50.940;6.940;2023-03-14T04:32:40;4.97;;;2.03;;
13455;SDS011;6800;50.940;6.940;2023-03-14T04:36:41;2.43;;;1.60;;
13455;SDS011;6800;50.940;6.940;2023-03-14T04:40:43;5.10;;;1.73;;
13455;SDS011;6800;50.940;6.940;2023-03-14T04:44:45;3.77;;;1.27;;
13455;SDS011;6800;50.940;6.940;2023-03-14T04:48:47;4.43;;;1.27;;
13455;SDS011;6800;50.940;6.940;2023-03-14T04:52:49;2.40;;;1.40;;
13455;SDS011;6800;50.940;6.940;2023-03-14T04:56:50;2.90;;;1.50;;
13455;SDS011;6800;50.940;6.940;2023-03-14T05:00:52;2.80;;;1.30;;
13455;SDS011;6800;50.940;6.940;2023-03-14T05:04:53;3.37;;;1.47;;
13455;SDS011;6800;50.940;6.940;2023-03-14T05:08:54;3.73;;;1.57;;
13455;SDS011;6800;50.940;6.940;2023-03-14T05:12:56;3.70;;;1.23;;
13455;SDS011;6800;50.940;6.940;2023-03-14T05:16:57;1.93;;;1.17;;
13455;SDS011;6800;50.940;6.940;2023-03-14T05:20:59;1.30;;;1.10;;
13455;SDS011;6800;50.940;6.940;2023-03-14T05:25:00;3.13;;;1.07;;
13455;SDS011;6800;50.940;6.940;2023-03-14T05:29:01;2.50;;;1.30;;
13455;SDS011;6800;50.940;6.940;2023-03-14T05:33:03;2.80;;;1.47;;
13455;SDS011;6800;50.940;6.940;2023-03-14T05:37:04;1.30;;;0.80;;
13455;SDS011;6800;50.940;6.940;2023-03-14T05:41:06;1.97;;;0.90;;
13455;SDS011;6800;50.940;6.940;2023-03-14T05:45:07;1.23;;;0.70;;
13455;SDS011;6800;50.940;6.940;2023-03-14T05:49:09;1.47;;;0.97;;
13455;SDS011;6800;50.940;6.940;2023-03-14T05:53:10;0.83;;;0.83;;
13455;SDS011;6800;50.940;6.940;2023-03-14T05:57:12;0.73;;;0.70;;
13455;SDS011;6800;50.940;6.940;2023-03-14T06:01:14;0.80;;;0.80;;
13455;SDS011;6800;50.940;6.940;2023-03-14T06:05:16;0.90;;;0.80;;
13455;SDS011;6800;50.940;6.940;2023-03-14T06:09:17;0.83;;;0.77;;
13455;SDS011;6800;50.940;6.940;2023-03-14T06:13:20;0.80;;;0.80;;
13455;SDS011;6800;50.940;6.940;2023-03-14T06:17:22;0.87;;;0.67;;
13455;SDS011;6800;50.940;6.940;2023-03-14T06:21:23;0.97;;;0.90;;
13455;SDS011;6800;50.940;6.940;2023-03-14T06:25:24;1.13;;;1.03;;
13455;SDS011;6800;50.940;6.940;2023-03-14T06:29:26;0.70;;;0.70;;
13455;SDS011;6800;50.940;6.940;2023-03-14T06:33:27;1.70;;;0.87;;
13455;SDS011;6800;50.940;6.940;2023-03-14T06:37:29;1.30;;;0.90;;
13455;SDS011;6800;50.940;6.940;2023-03-14T06:41:31;1.30;;;0.90;;
13455;SDS011;6800;50.940;6.940;2023-03-14T06:45:33;1.33;;;1.23;;
13455;SDS011;6800;50.940;6.940;2023-03-14T06:49:35;1.00;;;0.90;;
13455;SDS011;6800;50.940;6.940;2023-03-14T06:53:36;1.60;;;1.10;;
13455;SDS011;6800;50.940;6.940;2023-03-14T06:57:38;1.40;;;1.07;;
13455;SDS011;6800;50.940;6.940;2023-03-14T07:01:39;1.07;;;1.00;;
13455;SDS011;6800;50.940;6.940;2023-03-14T07:05:41;0.80;;;0.80;;
13455;SDS011;6800;50.940;6.940;2023-03-14T07:09:42;2.27;;;1.33;;
13455;SDS011;6800;50.940;6.940;2023-03-14T07:13:44;1.30;;;1.20;;
13455;SDS011;6800;50.940;6.940;2023-03-14T07:17:45;1.53;;;1.40;;
13455;SDS011;6800;50.940;6.940;2023-03-14T07:21:49;1.57;;;1.03;;
13455;SDS011;6800;50.940;6.940;2023-03-14T07:25:50;1.00;;;0.90;;
13455;SDS011;6800;50.940;6.940;2023-03-14T07:29:53;2.23;;;1.20;;
13455;SDS011;6800;50.940;6.940;2023-03-14T07:33:55;1.73;;;1.07;;
13455;SDS011;6800;50.940;6.940;2023-03-14T07:37:56;1.50;;;0.90;;
13455;SDS011;6800;50.940;6.940;2023-03-14T07:41:57;2.43;;;1.10;;
13455;SDS011;6800;50.940;6.940;2023-03-14T07:46:00;1.03;;;0.80;;
13455;SDS011;6800;50.940;6.940;2023-03-14T07:50:03;1.37;;;0.70;;
13455;SDS011;6800;50.940;6.940;2023-03-14T07:54:05;2.97;;;1.03;;
13455;SDS011;6800;50.940;6.940;2023-03-14T07:58:07;1.43;;;0.90;;
13455;SDS011;6800;50.940;6.940;2023-03-14T08:02:10;3.37;;;1.23;;
13455;SDS011;6800;50.940;6.940;2023-03-14T08:06:13;2.73;;;1.03;;
13455;SDS011;6800;50.940;6.940;2023-03-14T08:10:14;3.13;;;0.93;;
13455;SDS011;6800;50.940;6.940;2023-03-14T08:14:25;1.40;;;1.00;;
13455;SDS011;6800;50.940;6.940;2023-03-14T08:18:26;1.67;;;0.90;;
13455;SDS011;6800;50.940;6.940;2023-03-14T08:22:28;1.57;;;0.80;;
13455;SDS011;6800;50.940;6.940;2023-03-14T08:26:29;1.30;;;0.90;;
13455;SDS011;6800;50.940;6.940;2023-03-14T08:30:30;1.53;;;0.80;;
13455;SDS011;6800;50.940;6.940;2023-03-14T08:34:32;1.27;;;0.83;;
13455;SDS011;6800;50.940;6.940;2023-03-14T08:38:34;1.10;;;0.70;;
13455;SDS011;6800;50.940;6.940;2023-03-14T08:42:39;0.73;;;0.63;;
13455;SDS011;6800;50.940;6.940;2023-03-14T08:46:41;1.57;;;0.93;;
13455;SDS011;6800;50.940;6.940;2023-03-14T08:50:42;1.70;;;1.20;;
13455;SDS011;6800;50.940;6.940;2023-03-14T08:54:44;1.63;;;1.00;;
13455;SDS011;6800;50.940;6.940;2023-03-14T08:58:47;1.63;;;1.10;;
13455;SDS011;6800;50.940;6.940;2023-03-14T09:02:49;1.13;;;0.80;;
13455;SDS011;6800;50.940;6.940;2023-03-14T09:06:51;1.33;;;0.90;;
13455;SDS011;6800;50.940;6.940;2023-03-14T09:10:52;0.90;;;0.90;;
13455;SDS011;6800;50.940;6.940;2023-03-14T09:14:54;2.40;;;1.10;;
13455;SDS011;6800;50.940;6.940;2023-03-14T09:18:55;2.37;;;1.13;;
13455;SDS011;6800;50.940;6.940;2023-03-14T09:23:00;1.37;;;1.27;;
13455;SDS011;6800;50.940;6.940;2023-03-14T09:27:02;3.80;;;0.90;;
13455;SDS011;6800;50.940;6.940;2023-03-14T09:31:06;1.23;;;1.00;;
13455;SDS011;6800;50.940;6.940;2023-03-14T09:35:09;1.30;;;1.20;;
13455;SDS011;6800;50.940;6.940;2023-03-14T09:39:11;3.00;;;1.50;;
13455;SDS011;6800;50.940;6.940;2023-03-14T09:43:13;3.83;;;1.50;;
13455;SDS011;6800;50.940;6.940;2023-03-14T09:47:16;3.47;;;1.50;;
13455;SDS011;6800;50.940;6.940;2023-03-14T09:51:20;1.60;;;1.50;;
13455;SDS011;6800;50.940;6.940;2023-03-14T09:55:25;2.20;;;2.00;;
13455;SDS011;6800;50.940;6.940;2023-03-14T09:59:27;4.37;;;2.97;;
13455;SDS011;6800;50.940;6.940;2023-03-14T10:03:33;4.47;;;3.10;;
13455;SDS011;6800;50.940;6.940;2023-03-14T10:07:36;4.43;;;3.20;;
13455;SDS011;6800;50.940;6.940;2023-03-14T10:11:39;4.20;;;2.77;;
13455;SDS011;6800;50.940;6.940;2023-03-14T10:15:40;6.30;;;3.57;;
13455;SDS011;6800;50.940;6.940;2023-03-14T10:23:52;4.07;;;3.13;;
13455;SDS011;6800;50.940;6.940;2023-03-14T10:27:54;3.50;;;3.20;;
13455;SDS011;6800;50.940;6.940;2023-03-14T10:36:03;2.40;;;2.20;;
13455;SDS011;6800;50.940;6.940;2023-03-14T10:40:19;2.80;;;2.60;;
13455;SDS011;6800;50.940;6.940;2023-03-14T10:44:22;6.20;;;2.80;;
13455;SDS011;6800;50.940;6.940;2023-03-14T10:48:31;3.17;;;2.47;;
13455;SDS011;6800;50.940;6.940;2023-03-14T10:52:34;2.93;;;2.37;;
13455;SDS011;6800;50.940;6.940;2023-03-14T10:56:59;3.67;;;2.20;;
13455;SDS011;6800;50.940;6.940;2023-03-14T11:05:12;6.27;;;3.13;;
13455;SDS011;6800;50.940;6.940;2023-03-14T11:09:28;4.10;;;3.47;;
13455;SDS011;6800;50.940;6.940;2023-03-14T11:13:39;5.17;;;4.00;;
13455;SDS011;6800;50.940;6.940;2023-03-14T11:17:52;4.50;;;3.20;;
13455;SDS011;6800;50.940;6.940;2023-03-14T11:22:20;4.13;;;2.97;;
13455;SDS011;6800;50.940;6.940;2023-03-14T11:30:35;3.53;;;2.87;;
13455;SDS011;6800;50.940;6.940;2023-03-14T11:34:50;2.90;;;2.60;;
13455;SDS011;6800;50.940;6.940;2023-03-14T11:38:55;4.10;;;3.10;;
13455;SDS011;6800;50.940;6.940;2023-03-14T11:43:15;5.80;;;2.77;;
13455;SDS011;6800;50.940;6.940;2023-03-14T11:51:36;3.20;;;2.67;;
13455;SDS011;6800;50.940;6.940;2023-03-14T11:55:40;3.70;;;2.50;;
13455;SDS011;6800;50.940;6.940;2023-03-14T11:59:50;2.73;;;2.10;;
13455;SDS011;6800;50.940;6.940;2023-03-14T12:04:04;2.23;;;1.93;;
13455;SDS011;6800;50.940;6.940;2023-03-14T12:12:33;3.10;;;2.53;;
13455;SDS011;6800;50.940;6.940;2023-03-14T12:16:37;3.80;;;3.43;;
13455;SDS011;6800;50.940;6.940;2023-03-14T12:20:41;4.67;;;3.30;;
13455;SDS011;6800;50.940;6.940;2023-03-14T12:29:16;3.57;;;2.70;;
13455;SDS011;6800;50.940;6.940;2023-03-14T12:37:27;2.93;;;2.20;;
13455;SDS011;6800;50.940;6.940;2023-03-14T12:41:40;2.30;;;1.83;;
13455;SDS011;6800;50.940;6.940;2023-03-14T12:46:05;3.03;;;1.93;;
13455;SDS011;6800;50.940;6.940;2023-03-14T12:50:24;4.07;;;1.93;;
13455;SDS011;6800;50.940;6.940;2023-03-14T12:59:17;3.30;;;2.10;;
13455;SDS011;6800;50.940;6.940;2023-03-14T13:03:39;5.00;;;2.63;;
13455;SDS011;6800;50.940;6.940;2023-03-14T13:11:47;3.83;;;2.00;;
13455;SDS011;6800;50.940;6.940;2023-03-14T13:15:49;4.10;;;2.40;;
13455;SDS011;6800;50.940;6.940;2023-03-14T13:20:00;6.60;;;3.10;;
13455;SDS011;6800;50.940;6.940;2023-03-14T13:24:07;2.30;;;1.93;;
13455;SDS011;6800;50.940;6.940;2023-03-14T13:28:29;4.77;;;1.90;;
13455;SDS011;6800;50.940;6.940;2023-03-14T13:32:32;3.00;;;2.00;;
13455;SDS011;6800;50.940;6.940;2023-03-14T13:36:35;3.30;;;2.00;;
13455;SDS011;6800;50.940;6.940;2023-03-14T13:40:37;4.27;;;2.37;;
13455;SDS011;6800;50.940;6.940;2023-03-14T13:44:39;3.73;;;2.23;;
13455;SDS011;6800;50.940;6.940;2023-03-14T13:48:52;3.87;;;2.00;;
13455;SDS011;6800;50.940;6.940;2023-03-14T13:52:56;7.00;;;2.20;;
13455;SDS011;6800;50.940;6.940;2023-03-14T13:57:02;6.30;;;2.10;;
13455;SDS011;6800;50.940;6.940;2023-03-14T14:01:19;4.60;;;2.40;;
13455;SDS011;6800;50.940;6.940;2023-03-14T14:05:28;6.53;;;2.70;;
13455;SDS011;6800;50.940;6.940;2023-03-14T14:09:31;7.17;;;2.43;;
13455;SDS011;6800;50.940;6.940;2023-03-14T14:13:38;8.57;;;2.97;;
13455;SDS011;6800;50.940;6.940;2023-03-14T14:17:41;13.10;;;3.30;;
13455;SDS011;6800;50.940;6.940;2023-03-14T14:21:45;10.70;;;2.27;;
13455;SDS011;6800;50.940;6.940;2023-03-14T14:25:48;10.80;;;3.30;;
13455;SDS011;6800;50.940;6.940;2023-03-14T14:29:57;12.07;;;3.37;;
13455;SDS011;6800;50.940;6.940;2023-03-14T14:34:02;12.40;;;3.70;;
13455;SDS011;6800;50.940;6.940;2023-03-14T14:38:10;12.80;;;3.20;;
13455;SDS011;6800;50.940;6.940;2023-03-14T14:42:18;12.73;;;4.10;;
13455;SDS011;6800;50.940;6.940;2023-03-14T14:46:25;12.40;;;3.73;;
13455;SDS011;6800;50.940;6.940;2023-03-14T14:50:30;12.60;;;3.70;;
13455;SDS011;6800;50.940;6.940;2023-03-14T14:54:38;10.80;;;3.57;;
13455;SDS011;6800;50.940;6.940;2023-03-14T14:58:46;10.50;;;3.20;;
13455;SDS011;6800;50.940;6.940;2023-03-14T15:02:48;8.23;;;3.10;;
13455;SDS011;6800;50.940;6.940;2023-03-14T15:06:55;13.40;;;3.90;;
13455;SDS011;6800;50.940;6.940;2023-03-14T15:10:58;13.70;;;3.70;;
13455;SDS011;6800;50.940;6.940;2023-03-14T15:14:59;11.40;;;3.57;;
13455;SDS011;6800;50.940;6.940;2023-03-14T15:19:02;12.77;;;3.47;;
13455;SDS011;6800;50.940;6.940;2023-03-14T15:23:25;13.97;;;3.67;;
13455;SDS011;6800;50.940;6.940;2023-03-14T15:27:26;12.90;;;3.47;;
13455;SDS011;6800;50.940;6.940;2023-03-14T15:31:31;13.17;;;3.47;;
13455;SDS011;6800;50.940;6.940;2023-03-14T15:35:32;13.23;;;3.43;;
13455;SDS011;6800;50.940;6.940;2023-03-14T15:39:34;10.80;;;3.27;;
13455;SDS011;6800;50.940;6.940;2023-03-14T15:43:35;10.80;;;2.90;;
13455;SDS011;6800;50.940;6.940;2023-03-14T15:47:37;13.97;;;3.27;;
13455;SDS011;6800;50.940;6.940;2023-03-14T15:51:38;10.47;;;3.73;;
13455;SDS011;6800;50.940;6.940;2023-03-14T15:55:39;10.50;;;3.20;;
13455;SDS011;6800;50.940;6.940;2023-03-14T15:59:41;10.30;;;3.00;;
13455;SDS011;6800;50.940;6.940;2023-03-14T16:03:43;9.87;;;3.20;;
13455;SDS011;6800;50.940;6.940;2023-03-14T16:07:46;13.93;;;4.67;;
13455;SDS011;6800;50.940;6.940;2023-03-14T16:11:47;11.97;;;3.37;;
13455;SDS011;6800;50.940;6.940;2023-03-14T16:15:52;11.07;;;3.50;;
13455;SDS011;6800;50.940;6.940;2023-03-14T16:20:01;15.53;;;3.57;;
13455;SDS011;6800;50.940;6.940;2023-03-14T16:24:04;9.40;;;3.63;;
13455;SDS011;6800;50.940;6.940;2023-03-14T16:28:07;13.70;;;3.20;;
13455;SDS011;6800;50.940;6.940;2023-03-14T16:32:11;10.43;;;3.70;;
13455;SDS011;6800;50.940;6.940;2023-03-14T16:36:14;10.87;;;3.20;;
13455;SDS011;6800;50.940;6.940;2023-03-14T16:40:15;7.67;;;3.07;;
13455;SDS011;6800;50.940;6.940;2023-03-14T16:44:17;10.30;;;3.27;;
13455;SDS011;6800;50.940;6.940;2023-03-14T16:48:19;8.47;;;3.37;;
13455;SDS011;6800;50.940;6.940;2023-03-14T16:52:20;8.10;;;2.97;;
13455;SDS011;6800;50.940;6.940;2023-03-14T16:56:22;7.37;;;2.70;;
13455;SDS011;6800;50.940;6.940;2023-03-14T17:00:23;8.27;;;2.87;;
13455;SDS011;6800;50.940;6.940;2023-03-14T17:04:25;7.67;;;2.90;;
13455;SDS011;6800;50.940;6.940;2023-03-14T17:08:26;7.13;;;2.60;;
13455;SDS011;6800;50.940;6.940;2023-03-14T17:12:28;11.33;;;2.73;;
13455;SDS011;6800;50.940;6.940;2023-03-14T17:16:29;8.13;;;2.40;;
13455;SDS011;6800;50.940;6.940;2023-03-14T17:20:31;7.03;;;2.47;;
13455;SDS011;6800;50.940;6.940;2023-03-14T17:24:33;7.97;;;3.27;;
13455;SDS011;6800;50.940;6.940;2023-03-14T17:28:34;7.60;;;2.70;;
13455;SDS011;6800;50.940;6.940;2023-03-14T17:32:36;6.20;;;3.33;;
13455;SDS011;6800;50.940;6.940;2023-03-14T17:36:37;5.77;;;2.67;;
13455;SDS011;6800;50.940;6.940;2023-03-14T17:40:38;8.17;;;3.60;;
13455;SDS011;6800;50.940;6.940;2023-03-14T17:44:40;7.87;;;2.87;;
13455;SDS011;6800;50.940;6.940;2023-03-14T17:48:45;8.67;;;2.67;;
13455;SDS011;6800;50.940;6.940;2023-03-14T17:52:48;8.83;;;3.20;;
13455;SDS011;6800;50.940;6.940;2023-03-14T17:56:49;7.27;;;3.37;;
13455;SDS011;6800;50.940;6.940;2023-03-14T18:00:51;6.60;;;2.80;;
13455;SDS011;6800;50.940;6.940;2023-03-14T18:04:52;5.87;;;3.07;;
13455;SDS011;6800;50.940;6.940;2023-03-14T18:08:53;6.73;;;3.60;;
13455;SDS011;6800;50.940;6.940;2023-03-14T18:12:56;8.00;;;3.73;;
13455;SDS011;6800;50.940;6.940;2023-03-14T18:16:57;7.57;;;3.23;;
13455;SDS011;6800;50.940;6.940;2023-03-14T18:20:59;6.77;;;3.37;;
13455;SDS011;6800;50.940;6.940;2023-03-14T18:25:00;7.53;;;3.27;;
13455;SDS011;6800;50.940;6.940;2023-03-14T18:29:01;7.10;;;3.37;;
13455;SDS011;6800;50.940;6.940;2023-03-14T18:33:03;9.80;;;3.60;;
13455;SDS011;6800;50.940;6.940;2023-03-14T18:37:05;8.17;;;3.90;;
13455;SDS011;6800;50.940;6.940;2023-03-14T18:41:11;8.77;;;3.40;;
13455;SDS011;6800;50.940;6.940;2023-03-14T18:45:14;8.77;;;3.33;;
13455;SDS011;6800;50.940;6.940;2023-03-14T18:49:15;9.00;;;3.57;;
13455;SDS011;6800;50.940;6.940;2023-03-14T18:53:17;7.47;;;3.30;;
13455;SDS011;6800;50.940;6.940;2023-03-14T18:57:18;9.60;;;3.43;;
13455;SDS011;6800;50.940;6.940;2023-03-14T19:01:20;9.33;;;2.80;;
13455;SDS011;6800;50.940;6.940;2023-03-14T19:05:22;8.53;;;2.67;;
13455;SDS011;6800;50.940;6.940;2023-03-14T19:09:24;11.13;;;3.37;;
13455;SDS011;6800;50.940;6.940;2023-03-14T19:13:25;12.47;;;3.67;;
13455;SDS011;6800;50.940;6.940;2023-03-14T19:17:27;11.20;;;3.47;;
13455;SDS011;6800;50.940;6.940;2023-03-14T19:21:29;6.07;;;3.27;;
13455;SDS011;6800;50.940;6.940;2023-03-14T19:25:33;6.10;;;3.13;;
13455;SDS011;6800;50.940;6.940;2023-03-14T19:29:34;10.33;;;2.90;;
13455;SDS011;6800;50.940;6.940;2023-03-14T19:33:42;7.80;;;3.60;;
13455;SDS011;6800;50.940;6.940;2023-03-14T19:37:43;5.83;;;3.17;;
13455;SDS011;6800;50.940;6.940;2023-03-14T19:41:45;7.03;;;3.60;;
13455;SDS011;6800;50.940;6.940;2023-03-14T19:45:46;9.30;;;3.33;;
13455;SDS011;6800;50.940;6.940;2023-03-14T19:49:48;12.20;;;3.80;;
13455;SDS011;6800;50.940;6.940;2023-03-14T19:53:50;10.47;;;3.77;;
13455;SDS011;6800;50.940;6.940;2023-03-14T19:57:52;8.73;;;3.40;;
13455;SDS011;6800;50.940;6.940;2023-03-14T20:01:54;7.63;;;3.23;;
13455;SDS011;6800;50.940;6.940;2023-03-14T20:05:58;7.00;;;2.80;;
13455;SDS011;6800;50.940;6.940;2023-03-14T20:10:04;7.63;;;2.80;;
13455;SDS011;6800;50.940;6.940;2023-03-14T20:14:07;9.47;;;3.03;;
13455;SDS011;6800;50.940;6.940;2023-03-14T20:18:09;7.17;;;3.03;;
13455;SDS011;6800;50.940;6.940;2023-03-14T20:22:11;6.40;;;2.97;;
13455;SDS011;6800;50.940;6.940;2023-03-14T20:26:12;7.80;;;2.90;;
13455;SDS011;6800;50.940;6.940;2023-03-14T20:30:14;8.03;;;3.17;;
13455;SDS011;6800;50.940;6.940;2023-03-14T20:34:18;10.10;;;3.33;;
13455;SDS011;6800;50.940;6.940;2023-03-14T20:38:21;13.10;;;3.43;;
13455;SDS011;6800;50.940;6.940;2023-03-14T20:42:24;12.20;;;3.30;;
13455;SDS011;6800;50.940;6.940;2023-03-14T20:46:27;7.43;;;3.60;;
13455;SDS011;6800;50.940;6.940;2023-03-14T20:50:28;8.83;;;3.50;;
13455;SDS011;6800;50.940;6.940;2023-03-14T20:54:30;8.13;;;3.30;;
13455;SDS011;6800;50.940;6.940;2023-03-14T20:58:32;5.20;;;3.20;;
13455;SDS011;6800;50.940;6.940;2023-03-14T21:02:34;10.63;;;5.10;;
13455;SDS011;6800;50.940;6.940;2023-03-14T21:06:36;8.93;;;4.00;;
13455;SDS011;6800;50.940;6.940;2023-03-14T21:10:37;8.47;;;3.60;;
13455;SDS011;6800;50.940;6.940;2023-03-14T21:14:39;11.13;;;2.80;;
13455;SDS011;6800;50.940;6.940;2023-03-14T21:18:40;10.73;;;4.20;;
13455;SDS011;6800;50.940;6.940;2023-03-14T21:22:41;11.03;;;3.50;;
13455;SDS011;6800;50.940;6.940;2023-03-14T21:26:43;9.23;;;3.43;;
13455;SDS011;6800;50.940;6.940;2023-03-14T21:30:46;8.80;;;3.27;;
13455;SDS011;6800;50.940;6.940;2023-03-14T21:34:48;8.87;;;3.53;;
13455;SDS011;6800;50.940;6.940;2023-03-14T21:38:49;10.93;;;3.90;;
13455;SDS011;6800;50.940;6.940;2023-03-14T21:42:51;9.17;;;3.67;;
13455;SDS011;6800;50.940;6.940;2023-03-14T21:46:55;7.80;;;4.03;;
13455;SDS011;6800;50.940;6.940;2023-03-14T21:50:56;7.07;;;3.57;;
13455;SDS011;6800;50.940;6.940;2023-03-14T21:54:58;11.37;;;4.00;;
13455;SDS011;6800;50.940;6.940;2023-03-14T21:58:59;6.70;;;3.83;;
13455;SDS011;6800;50.940;6.940;2023-03-14T22:03:00;8.00;;;3.80;;
13455;SDS011;6800;50.940;6.940;2023-03-14T22:07:14;8.77;;;4.23;;
13455;SDS011;6800;50.940;6.940;2023-03-14T22:11:20;7.97;;;3.30;;
13455;SDS011;6800;50.940;6.940;2023-03-14T22:15:22;8.33;;;3.53;;
13455;SDS011;6800;50.940;6.940;2023-03-14T22:19:24;9.87;;;4.57;;
13455;SDS011;6800;50.940;6.940;2023-03-14T22:23:26;9.17;;;4.47;;
13455;SDS011;6800;50.940;6.940;2023-03-14T22:27:28;8.93;;;4.60;;
13455;SDS011;6800;50.940;6.940;2023-03-14T22:31:29;13.10;;;4.40;;
13455;SDS011;6800;50.940;6.940;2023-03-14T22:35:31;8.63;;;4.20;;
13455;SDS011;6800;50.940;6.940;2023-03-14T22:39:33;11.70;;;4.23;;
13455;SDS011;6800;50.940;6.940;2023-03-14T22:43:34;8.93;;;4.87;;
13455;SDS011;6800;50.940;6.940;2023-03-14T22:47:36;13.63;;;4.63;;
13455;SDS011;6800;50.940;6.940;2023-03-14T22:51:37;11.43;;;6.07;;
13455;SDS011;6800;50.940;6.940;2023-03-14T22:55:38;12.30;;;5.23;;
13455;SDS011;6800;50.940;6.940;2023-03-14T22:59:40;11.67;;;6.47;;
13455;SDS011;6800;50.940;6.940;2023-03-14T23:03:42;18.77;;;7.63;;
13455;SDS011;6800;50.940;6.940;2023-03-14T23:07:43;12.40;;;7.10;;
13455;SDS011;6800;50.940;6.940;2023-03-14T23:11:45;16.50;;;7.63;;
13455;SDS011;6800;50.940;6.940;2023-03-14T23:15:46;12.87;;;7.30;;
13455;SDS011;6800;50.940;6.940;2023-03-14T23:19:47;12.10;;;6.33;;
13455;SDS011;6800;50.940;6.940;2023-03-14T23:23:49;9.83;;;6.67;;
13455;SDS011;6800;50.940;6.940;2023-03-14T23:27:51;13.57;;;7.17;;
13455;SDS011;6800;50.940;6.940;2023-03-14T23:31:54;15.43;;;7.70;;
13455;SDS011;6800;50.940;6.940;2023-03-14T23:35:55;12.87;;;7.60;;
13455;SDS011;6800;50.940;6.940;2023-03-14T23:39:57;13.10;;;7.97;;
13455;SDS011;6800;50.940;6.940;2023-03-14T23:43:58;14.33;;;8.33;;
13455;SDS011;6800;50.940;6.940;2023-03-14T23:48:02;14.67;;;9.23;;
13455;SDS011;6800;50.940;6.940;2023-03-14T23:52:04;12.30;;;9.53;;
13455;SDS011;6800;50.940;6.940;2023-03-14T23:56:05;10.60;;;8.23;;
